sensor_id;sensor_type;location;lat;lon;timestamp;temperature;humidity
20366;DHT22;10341;49.894;8.822;2023-05-16T00:02:41;12.00;99.90
20366;DHT22;10341;49.894;8.822;2023-05-16T00:08:01;12.00;99.90
20366;DHT22;10341;49.894;8.822;2023-05-16T00:13:20;12.00;99.90
20366;DHT22;10341;49.894;8.822;2023-05-16T00:18:43;12.00;99.90
20366;DHT22;10341;49.894;8.822;2023-05-16T00:24:04;11.90;99.90
20366;DHT22;10341;49.894;8.822;2023-05-16T00:29:23;11.90;99.90
20366;DHT22;10341;49.894;8.822;2023-05-16T00:34:42;11.90;99.90
20366;DHT22;10341;49.894;8.822;2023-05-16T00:40:01;11.80;99.90
20366;DHT22;10341;49.894;8.822;2023-05-16T00:45:20;11.80;99.90
20366;DHT22;10341;49.894;8.822;2023-05-16T00:50:40;11.70;99.90
20366;DHT22;10341;49.894;8.822;2023-05-16T00:55:59;11.80;99.90
20366;DHT22;10341;49.894;8.822;2023-05-16T01:01:22;11.80;99.90
20366;DHT22;10341;49.894;8.822;2023-05-16T01:06:42;11.70;99.90
20366;DHT22;10341;49.894;8.822;2023-05-16T01:17:58;11.80;99.90
20366;DHT22;10341;49.894;8.822;2023-05-16T01:29:02;11.90;99.90
20366;DHT22;10341;49.894;8.822;2023-05-16T01:34:21;11.80;99.90
20366;DHT22;10341;49.894;8.822;2023-05-16T01:39:44;11.80;99.90
20366;DHT22;10341;49.894;8.822;2023-05-16T01:45:11;11.90;99.90
20366;DHT22;10341;49.894;8.822;2023-05-16T01:50:39;11.80;99.90
20366;DHT22;10341;49.894;8.822;2023-05-16T01:56:01;11.80;99.90
20366;DHT22;10341;49.894;8.822;2023-05-16T02:01:20;11.80;99.90
20366;DHT22;10341;49.894;8.822;2023-05-16T02:06:41;11.70;99.90
20366;DHT22;10341;49.894;8.822;2023-05-16T02:12:01;11.70;99.90
20366;DHT22;10341;49.894;8.822;2023-05-16T02:17:21;11.70;99.90
20366;DHT22;10341;49.894;8.822;2023-05-16T02:22:40;11.70;99.90
20366;DHT22;10341;49.894;8.822;2023-05-16T02:28:05;11.60;99.90
20366;DHT22;10341;49.894;8.822;2023-05-16T02:33:25;11.60;99.90
20366;DHT22;10341;49.894;8.822;2023-05-16T02:38:45;11.50;99.90
20366;DHT22;10341;49.894;8.822;2023-05-16T02:44:04;11.30;99.90
20366;DHT22;10341;49.894;8.822;2023-05-16T02:49:24;11.20;99.90
20366;DHT22;10341;49.894;8.822;2023-05-16T02:54:43;11.10;99.90
20366;DHT22;10341;49.894;8.822;2023-05-16T03:00:03;10.90;99.90
20366;DHT22;10341;49.894;8.822;2023-05-16T03:05:24;10.80;99.90
20366;DHT22;10341;49.894;8.822;2023-05-16T03:10:43;10.60;99.90
20366;DHT22;10341;49.894;8.822;2023-05-16T03:16:03;10.40;99.90
20366;DHT22;10341;49.894;8.822;2023-05-16T03:21:24;10.20;99.90
20366;DHT22;10341;49.894;8.822;2023-05-16T03:26:43;10.20;99.90
20366;DHT22;10341;49.894;8.822;2023-05-16T03:32:03;10.10;99.90
20366;DHT22;10341;49.894;8.822;2023-05-16T03:37:23;10.10;99.90
20366;DHT22;10341;49.894;8.822;2023-05-16T03:42:42;10.00;99.90
20366;DHT22;10341;49.894;8.822;2023-05-16T03:48:01;10.00;99.90
20366;DHT22;10341;49.894;8.822;2023-05-16T03:53:20;10.00;99.90
20366;DHT22;10341;49.894;8.822;2023-05-16T03:58:39;9.90;99.90
20366;DHT22;10341;49.894;8.822;2023-05-16T04:03:58;9.90;99.90
20366;DHT22;10341;49.894;8.822;2023-05-16T04:09:17;9.80;99.90
20366;DHT22;10341;49.894;8.822;2023-05-16T04:14:37;9.80;99.90
20366;DHT22;10341;49.894;8.822;2023-05-16T04:19:56;9.90;99.90
20366;DHT22;10341;49.894;8.822;2023-05-16T04:25:16;10.10;99.90
20366;DHT22;10341;49.894;8.822;2023-05-16T04:30:35;10.20;99.90
20366;DHT22;10341;49.894;8.822;2023-05-16T04:35:55;10.40;99.90
20366;DHT22;10341;49.894;8.822;2023-05-16T04:41:15;10.60;99.90
20366;DHT22;10341;49.894;8.822;2023-05-16T04:46:35;10.70;99.90
20366;DHT22;10341;49.894;8.822;2023-05-16T04:51:55;10.90;99.90
20366;DHT22;10341;49.894;8.822;2023-05-16T04:57:14;11.00;99.90
20366;DHT22;10341;49.894;8.822;2023-05-16T05:02:33;11.20;99.90
20366;DHT22;10341;49.894;8.822;2023-05-16T05:07:52;11.30;99.90
20366;DHT22;10341;49.894;8.822;2023-05-16T05:13:12;11.50;99.90
20366;DHT22;10341;49.894;8.822;2023-05-16T05:18:32;11.60;99.90
20366;DHT22;10341;49.894;8.822;2023-05-16T05:23:51;11.70;99.90
20366;DHT22;10341;49.894;8.822;2023-05-16T05:29:11;11.90;99.90
20366;DHT22;10341;49.894;8.822;2023-05-16T05:34:30;11.90;99.90
20366;DHT22;10341;49.894;8.822;2023-05-16T05:39:49;12.00;99.90
20366;DHT22;10341;49.894;8.822;2023-05-16T05:45:09;12.00;99.90
20366;DHT22;10341;49.894;8.822;2023-05-16T05:50:28;12.10;99.90
20366;DHT22;10341;49.894;8.822;2023-05-16T05:55:47;12.10;99.90
20366;DHT22;10341;49.894;8.822;2023-05-16T06:01:07;12.10;99.90
20366;DHT22;10341;49.894;8.822;2023-05-16T06:06:26;12.10;99.90
20366;DHT22;10341;49.894;8.822;2023-05-16T06:11:45;12.10;99.90
20366;DHT22;10341;49.894;8.822;2023-05-16T06:17:04;12.20;99.90
20366;DHT22;10341;49.894;8.822;2023-05-16T06:22:23;12.20;99.90
20366;DHT22;10341;49.894;8.822;2023-05-16T06:27:42;12.20;99.90
20366;DHT22;10341;49.894;8.822;2023-05-16T06:33:01;12.20;99.90
20366;DHT22;10341;49.894;8.822;2023-05-16T06:38:20;12.20;99.90
20366;DHT22;10341;49.894;8.822;2023-05-16T06:43:40;12.20;99.90
20366;DHT22;10341;49.894;8.822;2023-05-16T06:48:59;12.10;99.90
20366;DHT22;10341;49.894;8.822;2023-05-16T06:54:18;12.10;99.90
20366;DHT22;10341;49.894;8.822;2023-05-16T06:59:37;12.10;99.90
20366;DHT22;10341;49.894;8.822;2023-05-16T07:04:57;12.00;99.90
20366;DHT22;10341;49.894;8.822;2023-05-16T07:10:16;12.10;99.90
20366;DHT22;10341;49.894;8.822;2023-05-16T07:15:35;12.10;99.90
20366;DHT22;10341;49.894;8.822;2023-05-16T07:20:54;12.30;99.90
20366;DHT22;10341;49.894;8.822;2023-05-16T07:26:13;12.40;99.90
20366;DHT22;10341;49.894;8.822;2023-05-16T07:31:32;12.50;99.90
20366;DHT22;10341;49.894;8.822;2023-05-16T07:36:51;12.60;99.90
20366;DHT22;10341;49.894;8.822;2023-05-16T07:42:10;12.70;99.90
20366;DHT22;10341;49.894;8.822;2023-05-16T07:47:29;12.60;99.90
20366;DHT22;10341;49.894;8.822;2023-05-16T07:52:48;12.50;99.90
20366;DHT22;10341;49.894;8.822;2023-05-16T07:58:08;12.50;99.90
20366;DHT22;10341;49.894;8.822;2023-05-16T08:03:28;12.40;99.90
20366;DHT22;10341;49.894;8.822;2023-05-16T08:08:48;12.20;99.90
20366;DHT22;10341;49.894;8.822;2023-05-16T08:14:07;12.20;99.90
20366;DHT22;10341;49.894;8.822;2023-05-16T08:19:26;12.30;99.90
20366;DHT22;10341;49.894;8.822;2023-05-16T08:24:45;12.30;99.90
20366;DHT22;10341;49.894;8.822;2023-05-16T08:30:05;12.40;99.90
20366;DHT22;10341;49.894;8.822;2023-05-16T08:35:25;12.50;99.90
20366;DHT22;10341;49.894;8.822;2023-05-16T08:40:44;12.40;99.90
20366;DHT22;10341;49.894;8.822;2023-05-16T08:46:08;12.10;99.90
20366;DHT22;10341;49.894;8.822;2023-05-16T08:51:31;11.80;99.90
20366;DHT22;10341;49.894;8.822;2023-05-16T08:56:53;11.70;99.90
20366;DHT22;10341;49.894;8.822;2023-05-16T09:02:13;11.70;99.90
20366;DHT22;10341;49.894;8.822;2023-05-16T09:07:32;11.70;99.90
20366;DHT22;10341;49.894;8.822;2023-05-16T09:12:51;11.80;99.90
20366;DHT22;10341;49.894;8.822;2023-05-16T09:18:13;12.10;99.90
20366;DHT22;10341;49.894;8.822;2023-05-16T09:23:33;12.30;99.90
20366;DHT22;10341;49.894;8.822;2023-05-16T09:28:53;12.90;99.90
20366;DHT22;10341;49.894;8.822;2023-05-16T09:34:13;13.60;99.90
20366;DHT22;10341;49.894;8.822;2023-05-16T09:39:32;14.20;99.90
20366;DHT22;10341;49.894;8.822;2023-05-16T09:44:53;14.60;99.90
20366;DHT22;10341;49.894;8.822;2023-05-16T09:50:13;14.60;99.90
20366;DHT22;10341;49.894;8.822;2023-05-16T09:55:34;14.50;99.90
20366;DHT22;10341;49.894;8.822;2023-05-16T10:00:55;14.50;99.90
20366;DHT22;10341;49.894;8.822;2023-05-16T10:06:16;14.30;99.90
20366;DHT22;10341;49.894;8.822;2023-05-16T10:11:35;14.10;99.90
20366;DHT22;10341;49.894;8.822;2023-05-16T10:16:56;14.00;99.90
20366;DHT22;10341;49.894;8.822;2023-05-16T10:22:16;13.90;99.90
20366;DHT22;10341;49.894;8.822;2023-05-16T10:27:36;14.00;99.90
20366;DHT22;10341;49.894;8.822;2023-05-16T10:32:55;14.10;99.90
20366;DHT22;10341;49.894;8.822;2023-05-16T10:38:17;14.40;99.90
20366;DHT22;10341;49.894;8.822;2023-05-16T10:43:37;14.70;99.90
20366;DHT22;10341;49.894;8.822;2023-05-16T10:48:57;15.00;99.90
20366;DHT22;10341;49.894;8.822;2023-05-16T10:54:16;15.00;99.90
20366;DHT22;10341;49.894;8.822;2023-05-16T11:05:01;14.80;99.90
20366;DHT22;10341;49.894;8.822;2023-05-16T11:10:20;14.90;99.90
20366;DHT22;10341;49.894;8.822;2023-05-16T11:15:40;14.70;99.90
20366;DHT22;10341;49.894;8.822;2023-05-16T11:21:02;14.60;99.90
20366;DHT22;10341;49.894;8.822;2023-05-16T11:26:22;14.60;99.90
20366;DHT22;10341;49.894;8.822;2023-05-16T11:31:41;14.90;99.90
20366;DHT22;10341;49.894;8.822;2023-05-16T11:37:00;15.00;99.90
20366;DHT22;10341;49.894;8.822;2023-05-16T11:42:20;14.90;99.90
20366;DHT22;10341;49.894;8.822;2023-05-16T11:47:41;15.10;99.90
20366;DHT22;10341;49.894;8.822;2023-05-16T11:53:00;15.60;99.90
20366;DHT22;10341;49.894;8.822;2023-05-16T11:58:21;16.90;99.90
20366;DHT22;10341;49.894;8.822;2023-05-16T12:03:40;17.10;99.90
20366;DHT22;10341;49.894;8.822;2023-05-16T12:08:59;16.90;99.90
20366;DHT22;10341;49.894;8.822;2023-05-16T12:14:22;16.60;99.90
20366;DHT22;10341;49.894;8.822;2023-05-16T12:19:42;16.60;99.90
20366;DHT22;10341;49.894;8.822;2023-05-16T12:25:53;16.90;99.90
20366;DHT22;10341;49.894;8.822;2023-05-16T12:31:10;17.00;99.90
20366;DHT22;10341;49.894;8.822;2023-05-16T12:36:36;18.00;99.90
20366;DHT22;10341;49.894;8.822;2023-05-16T12:41:56;19.10;99.20
20366;DHT22;10341;49.894;8.822;2023-05-16T12:47:22;19.50;97.30
20366;DHT22;10341;49.894;8.822;2023-05-16T12:52:53;19.60;95.30
20366;DHT22;10341;49.894;8.822;2023-05-16T12:58:12;19.70;95.30
20366;DHT22;10341;49.894;8.822;2023-05-16T13:03:32;19.60;95.20
20366;DHT22;10341;49.894;8.822;2023-05-16T13:08:52;20.70;94.00
20366;DHT22;10341;49.894;8.822;2023-05-16T13:14:11;23.70;91.60
20366;DHT22;10341;49.894;8.822;2023-05-16T13:19:31;24.60;81.70
20366;DHT22;10341;49.894;8.822;2023-05-16T13:24:50;24.90;78.40
20366;DHT22;10341;49.894;8.822;2023-05-16T13:30:09;24.30;78.60
20366;DHT22;10341;49.894;8.822;2023-05-16T13:35:29;24.10;76.40
20366;DHT22;10341;49.894;8.822;2023-05-16T13:40:49;21.80;75.70
20366;DHT22;10341;49.894;8.822;2023-05-16T13:46:08;22.20;75.10
20366;DHT22;10341;49.894;8.822;2023-05-16T13:51:27;24.00;74.30
20366;DHT22;10341;49.894;8.822;2023-05-16T13:56:47;25.80;67.20
20366;DHT22;10341;49.894;8.822;2023-05-16T14:02:06;26.20;64.30
20366;DHT22;10341;49.894;8.822;2023-05-16T14:07:25;23.10;69.80
20366;DHT22;10341;49.894;8.822;2023-05-16T14:12:44;23.40;67.80
20366;DHT22;10341;49.894;8.822;2023-05-16T14:18:04;24.50;64.60
20366;DHT22;10341;49.894;8.822;2023-05-16T14:23:23;25.40;62.10
20366;DHT22;10341;49.894;8.822;2023-05-16T14:28:43;25.80;60.00
20366;DHT22;10341;49.894;8.822;2023-05-16T14:34:02;24.40;61.70
20366;DHT22;10341;49.894;8.822;2023-05-16T14:39:21;22.70;65.50
20366;DHT22;10341;49.894;8.822;2023-05-16T14:44:40;23.80;63.50
20366;DHT22;10341;49.894;8.822;2023-05-16T14:49:59;25.20;62.70
20366;DHT22;10341;49.894;8.822;2023-05-16T14:55:19;23.70;64.00
20366;DHT22;10341;49.894;8.822;2023-05-16T15:00:39;22.10;64.70
20366;DHT22;10341;49.894;8.822;2023-05-16T15:05:59;22.30;66.10
20366;DHT22;10341;49.894;8.822;2023-05-16T15:11:18;23.50;63.80
20366;DHT22;10341;49.894;8.822;2023-05-16T15:16:37;21.60;66.40
20366;DHT22;10341;49.894;8.822;2023-05-16T15:21:57;22.90;64.00
20366;DHT22;10341;49.894;8.822;2023-05-16T15:27:15;22.60;61.20
20366;DHT22;10341;49.894;8.822;2023-05-16T15:32:35;22.70;63.10
20366;DHT22;10341;49.894;8.822;2023-05-16T15:37:54;23.40;61.90
20366;DHT22;10341;49.894;8.822;2023-05-16T15:43:15;22.60;63.50
20366;DHT22;10341;49.894;8.822;2023-05-16T15:48:34;21.70;64.60
20366;DHT22;10341;49.894;8.822;2023-05-16T15:53:54;20.30;68.70
20366;DHT22;10341;49.894;8.822;2023-05-16T15:59:14;20.60;68.90
20366;DHT22;10341;49.894;8.822;2023-05-16T16:04:33;21.70;65.40
20366;DHT22;10341;49.894;8.822;2023-05-16T16:09:52;20.70;67.20
20366;DHT22;10341;49.894;8.822;2023-05-16T16:15:11;20.80;67.40
20366;DHT22;10341;49.894;8.822;2023-05-16T16:20:30;21.50;66.40
20366;DHT22;10341;49.894;8.822;2023-05-16T16:25:50;19.90;69.50
20366;DHT22;10341;49.894;8.822;2023-05-16T16:31:09;18.40;72.00
20366;DHT22;10341;49.894;8.822;2023-05-16T16:36:29;17.60;74.00
20366;DHT22;10341;49.894;8.822;2023-05-16T16:41:49;18.50;74.90
20366;DHT22;10341;49.894;8.822;2023-05-16T16:47:08;18.80;73.50
20366;DHT22;10341;49.894;8.822;2023-05-16T16:52:28;19.60;70.30
20366;DHT22;10341;49.894;8.822;2023-05-16T16:57:47;20.70;68.10
20366;DHT22;10341;49.894;8.822;2023-05-16T17:03:06;20.70;64.10
20366;DHT22;10341;49.894;8.822;2023-05-16T17:08:25;20.00;66.40
20366;DHT22;10341;49.894;8.822;2023-05-16T17:13:45;19.10;66.90
20366;DHT22;10341;49.894;8.822;2023-05-16T17:19:04;18.50;70.40
20366;DHT22;10341;49.894;8.822;2023-05-16T17:24:23;18.30;70.00
20366;DHT22;10341;49.894;8.822;2023-05-16T17:29:42;17.30;72.20
20366;DHT22;10341;49.894;8.822;2023-05-16T17:35:01;16.50;75.50
20366;DHT22;10341;49.894;8.822;2023-05-16T17:40:22;16.00;77.40
20366;DHT22;10341;49.894;8.822;2023-05-16T17:45:41;15.80;78.30
20366;DHT22;10341;49.894;8.822;2023-05-16T17:51:01;15.60;79.10
20366;DHT22;10341;49.894;8.822;2023-05-16T17:56:20;15.50;80.70
20366;DHT22;10341;49.894;8.822;2023-05-16T18:01:41;15.20;83.60
20366;DHT22;10341;49.894;8.822;2023-05-16T18:07:01;15.10;85.40
20366;DHT22;10341;49.894;8.822;2023-05-16T18:12:20;14.80;84.50
20366;DHT22;10341;49.894;8.822;2023-05-16T18:17:40;14.50;86.90
20366;DHT22;10341;49.894;8.822;2023-05-16T18:22:59;14.30;89.10
20366;DHT22;10341;49.894;8.822;2023-05-16T18:28:18;14.10;89.60
20366;DHT22;10341;49.894;8.822;2023-05-16T18:33:39;13.90;90.20
20366;DHT22;10341;49.894;8.822;2023-05-16T18:38:58;13.60;91.90
20366;DHT22;10341;49.894;8.822;2023-05-16T18:44:17;13.50;91.90
20366;DHT22;10341;49.894;8.822;2023-05-16T18:49:37;13.40;92.50
20366;DHT22;10341;49.894;8.822;2023-05-16T18:54:57;13.20;93.30
20366;DHT22;10341;49.894;8.822;2023-05-16T19:00:17;13.10;93.80
20366;DHT22;10341;49.894;8.822;2023-05-16T19:05:38;12.80;94.70
20366;DHT22;10341;49.894;8.822;2023-05-16T19:10:57;12.70;94.30
20366;DHT22;10341;49.894;8.822;2023-05-16T19:16:16;12.40;94.90
20366;DHT22;10341;49.894;8.822;2023-05-16T19:21:36;12.20;95.80
20366;DHT22;10341;49.894;8.822;2023-05-16T19:26:55;12.00;96.70
20366;DHT22;10341;49.894;8.822;2023-05-16T19:32:15;11.80;97.10
20366;DHT22;10341;49.894;8.822;2023-05-16T19:37:34;11.50;98.30
20366;DHT22;10341;49.894;8.822;2023-05-16T19:42:53;11.30;99.80
20366;DHT22;10341;49.894;8.822;2023-05-16T19:48:13;11.20;99.90
20366;DHT22;10341;49.894;8.822;2023-05-16T19:53:32;11.00;99.90
20366;DHT22;10341;49.894;8.822;2023-05-16T19:58:50;10.70;99.90
20366;DHT22;10341;49.894;8.822;2023-05-16T20:04:09;10.40;99.90
20366;DHT22;10341;49.894;8.822;2023-05-16T20:09:29;10.20;99.90
20366;DHT22;10341;49.894;8.822;2023-05-16T20:14:49;10.10;99.90
20366;DHT22;10341;49.894;8.822;2023-05-16T20:20:09;9.90;99.90
20366;DHT22;10341;49.894;8.822;2023-05-16T20:25:29;9.70;99.90
20366;DHT22;10341;49.894;8.822;2023-05-16T20:30:49;9.50;99.90
20366;DHT22;10341;49.894;8.822;2023-05-16T20:36:09;9.40;99.90
20366;DHT22;10341;49.894;8.822;2023-05-16T20:41:28;9.30;99.90
20366;DHT22;10341;49.894;8.822;2023-05-16T20:46:47;9.10;99.90
20366;DHT22;10341;49.894;8.822;2023-05-16T20:52:06;9.10;99.90
20366;DHT22;10341;49.894;8.822;2023-05-16T20:57:26;8.90;99.90
20366;DHT22;10341;49.894;8.822;2023-05-16T21:02:46;8.80;99.90
20366;DHT22;10341;49.894;8.822;2023-05-16T21:08:05;8.80;99.90
20366;DHT22;10341;49.894;8.822;2023-05-16T21:13:24;8.70;99.90
20366;DHT22;10341;49.894;8.822;2023-05-16T21:18:43;8.60;99.90
20366;DHT22;10341;49.894;8.822;2023-05-16T21:24:03;8.70;99.90
20366;DHT22;10341;49.894;8.822;2023-05-16T21:29:23;8.70;99.90
20366;DHT22;10341;49.894;8.822;2023-05-16T21:34:42;8.80;99.90
20366;DHT22;10341;49.894;8.822;2023-05-16T21:40:01;8.80;99.90
20366;DHT22;10341;49.894;8.822;2023-05-16T21:45:21;8.80;99.90
20366;DHT22;10341;49.894;8.822;2023-05-16T21:50:40;8.80;99.90
20366;DHT22;10341;49.894;8.822;2023-05-16T21:56:01;8.90;99.90
20366;DHT22;10341;49.894;8.822;2023-05-16T22:01:21;8.90;99.90
20366;DHT22;10341;49.894;8.822;2023-05-16T22:06:42;8.90;99.90
20366;DHT22;10341;49.894;8.822;2023-05-16T22:12:02;8.70;99.90
20366;DHT22;10341;49.894;8.822;2023-05-16T22:17:21;8.60;99.90
20366;DHT22;10341;49.894;8.822;2023-05-16T22:22:41;8.60;99.90
20366;DHT22;10341;49.894;8.822;2023-05-16T22:28:01;8.50;99.90
20366;DHT22;10341;49.894;8.822;2023-05-16T22:33:20;8.50;99.90
20366;DHT22;10341;49.894;8.822;2023-05-16T22:38:41;8.50;99.90
20366;DHT22;10341;49.894;8.822;2023-05-16T22:44:00;8.50;99.90
20366;DHT22;10341;49.894;8.822;2023-05-16T22:49:19;8.40;99.90
20366;DHT22;10341;49.894;8.822;2023-05-16T22:54:38;8.40;99.90
20366;DHT22;10341;49.894;8.822;2023-05-16T22:59:59;8.30;99.90
20366;DHT22;10341;49.894;8.822;2023-05-16T23:05:18;8.20;99.90
20366;DHT22;10341;49.894;8.822;2023-05-16T23:10:38;8.10;99.90
20366;DHT22;10341;49.894;8.822;2023-05-16T23:15:57;8.00;99.90
20366;DHT22;10341;49.894;8.822;2023-05-16T23:21:16;7.90;99.90
20366;DHT22;10341;49.894;8.822;2023-05-16T23:26:35;7.90;99.90
20366;DHT22;10341;49.894;8.822;2023-05-16T23:31:55;7.80;99.90
20366;DHT22;10341;49.894;8.822;2023-05-16T23:37:14;7.80;99.90
20366;DHT22;10341;49.894;8.822;2023-05-16T23:42:34;7.80;99.90
20366;DHT22;10341;49.894;8.822;2023-05-16T23:47:55;7.80;99.90
20366;DHT22;10341;49.894;8.822;2023-05-16T23:53:14;7.70;99.90
20366;DHT22;10341;49.894;8.822;2023-05-16T23:58:34;7.60;99.90
